createdAt,value
2023-04-30T00:02:18.964Z,100820.09
2023-04-30T00:04:47.554Z,100813.06
2023-04-30T00:07:17.374Z,100824.34
2023-04-30T00:09:45.993Z,100825.16
2023-04-30T00:12:14.617Z,100815.53
2023-04-30T00:14:43.175Z,100819.88
2023-04-30T00:17:11.800Z,100832.06
2023-04-30T00:19:40.312Z,100828.47
2023-04-30T00:22:09.579Z,100831.91
2023-04-30T00:24:39.446Z,100830.94
2023-04-30T00:27:07.971Z,100825.66
2023-04-30T00:29:37.614Z,100841.25
2023-04-30T00:32:06.725Z,100837.75
2023-04-30T00:34:35.264Z,100835.97
2023-04-30T00:37:03.817Z,100840.16
2023-04-30T00:39:32.260Z,100833.16
2023-04-30T00:42:02.476Z,100843.47
2023-04-30T00:44:31.052Z,100843.31
2023-04-30T00:46:59.547Z,100836.31
2023-04-30T00:49:28.311Z,100836.19
2023-04-30T00:51:57.352Z,100835.22
2023-04-30T00:54:27.084Z,100844.69
2023-04-30T00:56:55.716Z,100839.34
2023-04-30T00:59:25.877Z,100837.41
2023-04-30T01:01:55.182Z,100836.53
2023-04-30T01:04:23.672Z,100838.13
2023-04-30T01:06:52.431Z,100840.72
2023-04-30T01:09:21.147Z,100837.16
2023-04-30T01:11:58.468Z,100837.94
2023-04-30T01:14:32.080Z,100836.19
2023-04-30T01:17:07.465Z,100836.97
2023-04-30T01:19:40.135Z,100843.03
2023-04-30T01:22:13.111Z,100833.34
2023-04-30T01:25:03.700Z,100835.00
2023-04-30T01:27:55.753Z,100838.34
2023-04-30T01:30:25.819Z,100840.00
2023-04-30T01:32:54.498Z,100837.25
2023-04-30T01:35:30.994Z,100843.22
2023-04-30T01:38:09.224Z,100834.38
2023-04-30T01:40:44.285Z,100828.97
2023-04-30T01:43:23.832Z,100830.66
2023-04-30T01:46:11.540Z,100833.03
2023-04-30T01:48:47.868Z,100826.78
2023-04-30T01:51:26.064Z,100831.84
2023-04-30T01:53:59.442Z,100824.88
2023-04-30T01:56:38.002Z,100821.19
2023-04-30T01:59:09.541Z,100828.97
2023-04-30T02:01:38.357Z,100828.88
2023-04-30T02:04:06.961Z,100832.28
2023-04-30T02:06:35.548Z,100833.94
2023-04-30T02:09:06.165Z,100833.84
2023-04-30T02:11:34.921Z,100835.47
2023-04-30T02:14:03.446Z,100835.44
2023-04-30T02:16:33.320Z,100837.16
2023-04-30T02:19:01.933Z,100843.16
2023-04-30T02:21:31.458Z,100834.38
2023-04-30T02:23:59.995Z,100836.00
2023-04-30T02:26:28.707Z,100834.22
2023-04-30T02:28:57.251Z,100841.06
2023-04-30T02:31:25.891Z,100844.38
2023-04-30T02:33:55.901Z,100844.19
2023-04-30T02:36:24.430Z,100842.28
2023-04-30T02:38:52.936Z,100840.44
2023-04-30T02:41:21.761Z,100835.13
2023-04-30T02:43:50.316Z,100838.47
2023-04-30T02:46:19.303Z,100835.72
2023-04-30T02:48:47.897Z,100838.25
2023-04-30T02:51:18.235Z,100842.56
2023-04-30T02:53:46.799Z,100837.22
2023-04-30T02:56:15.474Z,100836.34
2023-04-30T02:58:43.980Z,100824.94
2023-04-30T03:01:12.723Z,100826.56
2023-04-30T03:03:41.382Z,100833.41
2023-04-30T03:06:10.019Z,100840.25
2023-04-30T03:08:39.886Z,100832.28
2023-04-30T03:11:08.388Z,100831.31
2023-04-30T03:13:36.942Z,100839.13
2023-04-30T03:16:06.636Z,100831.16
2023-04-30T03:18:35.123Z,100829.38
2023-04-30T03:21:03.668Z,100833.63
2023-04-30T03:23:32.456Z,100830.88
2023-04-30T03:26:02.537Z,100833.47
2023-04-30T03:28:30.990Z,100833.31
2023-04-30T03:31:00.810Z,100840.16
2023-04-30T03:33:29.441Z,100834.88
2023-04-30T03:35:58.015Z,100838.22
2023-04-30T03:38:26.563Z,100838.97
2023-04-30T03:40:55.075Z,100834.50
2023-04-30T03:43:24.967Z,100836.13
2023-04-30T03:45:53.605Z,100836.13
2023-04-30T03:48:22.510Z,100827.31
2023-04-30T03:50:51.001Z,100830.75
2023-04-30T03:53:19.508Z,100821.00
2023-04-30T03:55:49.228Z,100822.63
2023-04-30T03:58:17.718Z,100825.06
2023-04-30T04:00:48.513Z,100826.69
2023-04-30T04:03:18.033Z,100823.13
2023-04-30T04:05:46.624Z,100825.66
2023-04-30T04:08:15.381Z,100822.97
2023-04-30T04:10:43.918Z,100832.50
2023-04-30T04:13:12.738Z,100830.72
2023-04-30T04:15:41.409Z,100831.50
2023-04-30T04:18:11.351Z,100834.84
2023-04-30T04:20:40.766Z,100834.84
2023-04-30T04:23:09.644Z,100833.97
2023-04-30T04:25:39.407Z,100829.66
2023-04-30T04:28:08.010Z,100837.47
2023-04-30T04:30:37.746Z,100833.09
2023-04-30T04:33:06.933Z,100836.47
2023-04-30T04:35:38.553Z,100841.69
2023-04-30T04:38:07.497Z,100842.59
2023-04-30T04:40:37.301Z,100845.22
2023-04-30T04:43:05.781Z,100850.41
2023-04-30T04:45:34.314Z,100854.66
2023-04-30T04:48:02.943Z,100854.56
2023-04-30T04:50:31.503Z,100858.03
2023-04-30T04:53:01.681Z,100857.16
2023-04-30T04:55:30.118Z,100864.16
2023-04-30T04:57:59.183Z,100869.38
2023-04-30T05:00:27.771Z,100869.38
2023-04-30T05:02:56.645Z,100865.06
2023-04-30T05:05:25.270Z,100869.44
2023-04-30T05:07:54.997Z,100864.22
2023-04-30T05:10:24.900Z,100870.31
2023-04-30T05:12:53.580Z,100862.50
2023-04-30T05:15:26.378Z,100863.44
2023-04-30T05:17:58.694Z,100871.31
2023-04-30T05:20:27.284Z,100861.78
2023-04-30T05:22:55.892Z,100869.78
2023-04-30T05:25:26.909Z,100866.44
2023-04-30T05:27:56.313Z,100873.41
2023-04-30T05:30:24.785Z,100871.81
2023-04-30T05:32:53.696Z,100880.59
2023-04-30T05:35:22.429Z,100879.84
2023-04-30T05:37:51.070Z,100893.03
2023-04-30T05:40:19.708Z,100893.19
2023-04-30T05:42:49.625Z,100893.34
2023-04-30T05:45:18.405Z,100893.50
2023-04-30T05:47:46.979Z,100890.19
2023-04-30T05:50:15.664Z,100892.09
2023-04-30T05:52:44.231Z,100894.94
2023-04-30T05:55:12.825Z,100896.91
2023-04-30T05:57:41.327Z,100899.75
2023-04-30T06:00:12.598Z,100893.84
2023-04-30T06:02:41.179Z,100894.09
2023-04-30T06:05:10.150Z,100888.28
2023-04-30T06:07:38.821Z,100895.44
2023-04-30T06:10:09.417Z,100888.75
2023-04-30T06:12:38.112Z,100886.47
2023-04-30T06:15:08.272Z,100884.91
2023-04-30T06:17:38.197Z,100885.19
2023-04-30T06:20:08.249Z,100885.50
2023-04-30T06:22:37.047Z,100889.22
2023-04-30T06:25:06.279Z,100889.50
2023-04-30T06:27:35.017Z,100892.38
2023-04-30T06:30:03.518Z,100892.69
2023-04-30T06:32:32.166Z,100894.78
2023-04-30T06:35:02.165Z,100884.63
2023-04-30T06:37:35.800Z,100885.81
2023-04-30T06:40:04.932Z,100888.78
2023-04-30T06:42:35.334Z,100887.28
2023-04-30T06:45:04.720Z,100898.00
2023-04-30T06:47:34.611Z,100890.47
2023-04-30T06:50:05.176Z,100891.63
2023-04-30T06:52:33.859Z,100888.41
2023-04-30T06:55:02.526Z,100888.69
2023-04-30T06:57:31.934Z,100885.44
2023-04-30T07:00:00.672Z,100887.47
2023-04-30T07:02:29.229Z,100885.13
2023-04-30T07:04:59.002Z,100878.38
2023-04-30T07:07:29.205Z,100873.44
2023-04-30T07:09:58.054Z,100874.53
2023-04-30T07:12:27.208Z,100878.28
2023-04-30T07:14:55.978Z,100878.56
2023-04-30T07:17:27.407Z,100876.19
2023-04-30T07:19:56.631Z,100881.75
2023-04-30T07:22:25.638Z,100885.53
2023-04-30T07:24:56.393Z,100881.59
2023-04-30T07:27:25.275Z,100882.75
2023-04-30T07:29:54.230Z,100883.88
2023-04-30T07:32:22.963Z,100882.50
2023-04-30T07:34:55.118Z,100880.06
2023-04-30T07:37:23.890Z,100876.88
2023-04-30T07:39:55.762Z,100878.91
2023-04-30T07:42:24.832Z,100882.72
2023-04-30T07:44:53.987Z,100888.16
2023-04-30T07:47:22.778Z,100888.47
2023-04-30T07:49:51.463Z,100880.94
2023-04-30T07:52:20.093Z,100881.19
2023-04-30T07:54:49.432Z,100884.03
2023-04-30T07:57:20.274Z,100883.44
2023-04-30T07:59:53.090Z,100885.47
2023-04-30T08:02:22.172Z,100892.72
2023-04-30T08:04:51.004Z,100872.00
2023-04-30T08:07:21.161Z,100882.72
2023-04-30T08:09:49.997Z,100882.13
2023-04-30T08:12:19.992Z,100881.63
2023-04-30T08:14:48.632Z,100889.75
2023-04-30T08:17:17.650Z,100888.31
2023-04-30T08:19:46.359Z,100891.19
2023-04-30T08:22:15.201Z,100880.09
2023-04-30T08:24:43.915Z,100880.34
2023-04-30T08:27:12.779Z,100884.06
2023-04-30T08:29:42.750Z,100874.69
2023-04-30T08:32:11.637Z,100874.88
2023-04-30T08:34:41.495Z,100879.50
2023-04-30T08:37:10.151Z,100884.22
2023-04-30T08:39:38.728Z,100887.91
2023-04-30T08:42:10.801Z,100882.03
2023-04-30T08:44:44.024Z,100882.28
2023-04-30T08:47:14.975Z,100886.88
2023-04-30T08:49:44.882Z,100877.41
2023-04-30T08:52:13.611Z,100883.75
2023-04-30T08:54:43.596Z,100874.41
2023-04-30T08:57:12.444Z,100872.84
2023-04-30T08:59:41.636Z,100871.31
2023-04-30T09:02:11.086Z,100876.81
2023-04-30T09:04:41.110Z,100864.75
2023-04-30T09:07:12.018Z,100873.69
2023-04-30T09:09:40.849Z,100864.34
2023-04-30T09:12:17.866Z,100860.19
2023-04-30T09:15:01.559Z,100861.31
2023-04-30T09:17:30.998Z,100865.03
2023-04-30T09:20:10.139Z,100867.81
2023-04-30T09:22:40.655Z,100862.78
2023-04-30T09:25:11.280Z,100862.09
2023-04-30T09:27:39.768Z,100856.25
2023-04-30T09:30:10.267Z,100861.72
2023-04-30T09:32:56.406Z,100856.69
2023-04-30T09:35:33.527Z,100854.19
2023-04-30T09:38:03.070Z,100850.88
2023-04-30T09:40:38.196Z,100849.31
2023-04-30T09:43:07.311Z,100836.38
2023-04-30T09:45:47.501Z,100840.94
2023-04-30T09:48:18.063Z,100838.50
2023-04-30T09:50:48.289Z,100827.28
2023-04-30T09:53:18.926Z,100832.66
2023-04-30T09:55:49.036Z,100829.34
2023-04-30T09:58:18.889Z,100827.72
2023-04-30T10:00:49.623Z,100826.13
2023-04-30T10:03:18.294Z,100822.81
2023-04-30T10:05:49.695Z,100824.72
2023-04-30T10:08:23.178Z,100824.03
2023-04-30T10:10:58.613Z,100826.91
2023-04-30T10:13:31.390Z,100825.28
2023-04-30T10:16:02.407Z,100829.75
2023-04-30T10:18:36.210Z,100815.72
2023-04-30T10:21:12.581Z,100820.16
2023-04-30T10:23:43.401Z,100817.56
2023-04-30T10:26:13.074Z,100813.19
2023-04-30T10:28:43.314Z,100814.91
2023-04-30T10:31:13.936Z,100811.38
2023-04-30T10:33:50.764Z,100804.34
2023-04-30T10:36:28.142Z,100820.31
2023-04-30T10:38:56.844Z,100809.88
2023-04-30T10:41:28.098Z,100812.63
2023-04-30T10:44:01.821Z,100806.47
2023-04-30T10:46:30.774Z,100804.63
2023-04-30T10:49:00.215Z,100799.34
2023-04-30T10:54:27.741Z,100790.66
2023-04-30T10:57:11.212Z,100788.16
2023-04-30T10:59:43.638Z,100775.19
2023-04-30T11:02:12.812Z,100777.22
2023-04-30T11:05:12.855Z,100769.63
2023-04-30T11:07:52.355Z,100770.66
2023-04-30T11:10:25.389Z,100768.13
2023-04-30T11:12:57.184Z,100765.50
2023-04-30T11:15:27.464Z,100760.41
2023-04-30T11:17:59.662Z,100766.81
2023-04-30T11:20:30.111Z,100759.13
2023-04-30T11:23:21.800Z,100747.03
2023-04-30T11:26:01.724Z,100750.78
2023-04-30T11:28:31.431Z,100747.44
2023-04-30T11:31:02.690Z,100745.84
2023-04-30T11:33:32.839Z,100753.97
2023-04-30T11:36:02.561Z,100748.84
2023-04-30T11:38:35.456Z,100748.19
2023-04-30T11:41:06.363Z,100744.78
2023-04-30T11:43:36.177Z,100740.50
2023-04-30T11:46:08.574Z,100745.88
2023-04-30T11:48:39.327Z,100743.25
2023-04-30T11:51:16.666Z,100742.34
2023-04-30T11:53:47.951Z,100743.16
2023-04-30T11:56:22.333Z,100739.59
2023-04-30T11:58:51.720Z,100737.94
2023-04-30T12:01:22.565Z,100736.25
2023-04-30T12:03:53.603Z,100732.78
2023-04-30T12:06:27.812Z,100734.66
2023-04-30T12:08:58.421Z,100726.84
2023-04-30T12:11:31.013Z,100726.97
2023-04-30T12:14:05.179Z,100731.50
2023-04-30T12:16:43.227Z,100725.41
2023-04-30T12:19:13.088Z,100718.41
2023-04-30T12:21:46.657Z,100715.75
2023-04-30T12:24:17.815Z,100716.69
2023-04-30T12:26:51.217Z,100713.25
2023-04-30T12:29:20.700Z,100707.13
2023-04-30T12:31:52.109Z,100702.75
2023-04-30T12:34:20.893Z,100699.25
2023-04-30T12:36:49.721Z,100698.38
2023-04-30T12:39:19.388Z,100695.72
2023-04-30T12:41:50.723Z,100695.72
2023-04-30T12:44:24.956Z,100693.06
2023-04-30T12:46:57.424Z,100702.84
2023-04-30T12:49:28.001Z,100693.19
2023-04-30T12:52:01.665Z,100689.69
2023-04-30T12:54:32.692Z,100684.38
2023-04-30T12:57:05.319Z,100692.38
2023-04-30T12:59:36.079Z,100688.81
2023-04-30T13:02:13.207Z,100680.84
2023-04-30T13:04:43.693Z,100677.34
2023-04-30T13:07:12.582Z,100666.69
2023-04-30T13:09:41.995Z,100665.78
2023-04-30T13:12:12.962Z,100664.88
2023-04-30T13:14:41.963Z,100660.44
2023-04-30T13:17:14.800Z,100659.50
2023-04-30T13:19:44.067Z,100664.75
2023-04-30T13:22:15.620Z,100664.69
2023-04-30T13:24:45.418Z,100666.44
2023-04-30T13:27:19.034Z,100666.41
2023-04-30T13:29:49.911Z,100660.16
2023-04-30T13:32:18.806Z,100652.97
2023-04-30T13:34:48.361Z,100651.97
2023-04-30T13:37:16.905Z,100646.50
2023-04-30T13:39:45.464Z,100644.66
2023-04-30T13:42:15.679Z,100637.50
2023-04-30T13:44:47.953Z,100637.38
2023-04-30T13:47:16.894Z,100645.31
2023-04-30T13:49:45.830Z,100642.47
2023-04-30T13:52:14.541Z,100624.59
2023-04-30T13:54:43.712Z,100628.97
2023-04-30T13:57:12.317Z,100627.97
2023-04-30T13:59:40.876Z,100629.59
2023-04-30T14:02:11.021Z,100618.81
2023-04-30T14:04:39.734Z,100623.19
2023-04-30T14:07:08.945Z,100618.78
2023-04-30T14:09:37.752Z,100617.78
2023-04-30T14:12:06.786Z,100607.84
2023-04-30T14:14:36.429Z,100600.69
2023-04-30T14:17:06.571Z,100604.97
2023-04-30T14:19:36.963Z,100598.72
2023-04-30T14:22:05.998Z,100596.88
2023-04-30T14:24:35.474Z,100593.25
2023-04-30T14:27:04.882Z,100589.59
2023-04-30T14:29:33.670Z,100592.19
2023-04-30T14:32:04.266Z,100584.91
2023-04-30T14:34:32.934Z,100589.16
2023-04-30T14:37:03.967Z,100588.03
2023-04-30T14:39:32.614Z,100585.03
2023-04-30T14:42:01.752Z,100572.38
2023-04-30T14:44:30.513Z,100564.28
2023-04-30T14:46:59.220Z,100564.03
2023-04-30T14:49:28.023Z,100570.84
2023-04-30T14:51:56.744Z,100568.97
2023-04-30T14:54:26.705Z,100560.72
2023-04-30T14:56:55.241Z,100561.38
2023-04-30T14:59:24.241Z,100552.34
2023-04-30T15:01:52.736Z,100559.28
2023-04-30T15:04:21.595Z,100558.16
2023-04-30T15:06:50.711Z,100549.97
2023-04-30T15:09:19.922Z,100551.63
2023-04-30T15:11:49.880Z,100548.00
2023-04-30T15:14:18.609Z,100530.22
2023-04-30T15:16:49.306Z,100549.00
2023-04-30T15:19:18.222Z,100536.41
2023-04-30T15:21:48.946Z,100540.75
2023-04-30T15:24:18.084Z,100538.75
2023-04-30T15:26:46.745Z,100542.09
2023-04-30T15:29:17.375Z,100531.25
2023-04-30T15:31:46.217Z,100529.25
2023-04-30T15:34:14.960Z,100525.31
2023-04-30T15:36:43.758Z,100512.56
2023-04-30T15:39:12.547Z,100522.53
2023-04-30T15:41:41.295Z,100514.06
2023-04-30T15:44:09.778Z,100515.00
2023-04-30T15:46:39.923Z,100518.63
2023-04-30T15:49:08.781Z,100524.91
2023-04-30T15:51:39.707Z,100520.50
2023-04-30T15:54:10.943Z,100520.44
2023-04-30T15:56:39.747Z,100513.25
2023-04-30T15:59:08.427Z,100515.00
2023-04-30T16:01:37.057Z,100513.25
2023-04-30T16:04:07.489Z,100507.94
2023-04-30T16:06:36.703Z,100514.25
2023-04-30T16:09:07.714Z,100505.31
2023-04-30T16:11:36.616Z,100500.03
2023-04-30T16:14:05.138Z,100508.06
2023-04-30T16:16:33.790Z,100515.97
2023-04-30T16:19:02.473Z,100506.00
2023-04-30T16:21:33.724Z,100498.72
2023-04-30T16:24:03.970Z,100500.47
2023-04-30T16:26:34.767Z,100499.66
2023-04-30T16:29:03.899Z,100494.44
2023-04-30T16:31:32.408Z,100498.41
2023-04-30T16:34:01.159Z,100493.09
2023-04-30T16:36:29.689Z,100494.94
2023-04-30T16:38:59.542Z,100489.00
2023-04-30T16:41:28.192Z,100488.38
2023-04-30T16:43:56.877Z,100495.69
2023-04-30T16:46:25.512Z,100490.59
2023-04-30T16:48:54.499Z,100489.13
2023-04-30T16:51:22.900Z,100483.06
2023-04-30T16:53:51.318Z,100482.38
2023-04-30T16:56:21.513Z,100485.19
2023-04-30T16:58:50.083Z,100481.91
2023-04-30T17:01:19.210Z,100484.72
2023-04-30T17:03:48.027Z,100481.31
2023-04-30T17:06:16.773Z,100484.16
2023-04-30T17:08:48.131Z,100479.91
2023-04-30T17:11:20.609Z,100468.59
2023-04-30T17:13:50.640Z,100475.13
2023-04-30T17:16:19.588Z,100468.28
2023-04-30T17:18:48.200Z,100466.78
2023-04-30T17:21:17.103Z,100471.44
2023-04-30T17:23:45.952Z,100461.03
2023-04-30T17:26:14.872Z,100465.75
2023-04-30T17:28:44.076Z,100463.31
2023-04-30T17:31:14.675Z,100469.72
2023-04-30T17:33:44.121Z,100467.19
2023-04-30T17:36:14.750Z,100461.16
2023-04-30T17:38:43.521Z,100461.38
2023-04-30T17:41:12.969Z,100463.25
2023-04-30T17:43:42.253Z,100466.94
2023-04-30T17:46:11.743Z,100463.47
2023-04-30T17:48:42.068Z,100457.31
2023-04-30T17:51:11.092Z,100459.16
2023-04-30T17:53:40.589Z,100455.69
2023-04-30T17:56:10.059Z,100455.75
2023-04-30T17:58:40.112Z,100452.28
2023-04-30T18:01:09.214Z,100456.81
2023-04-30T18:03:38.613Z,100456.88
2023-04-30T18:06:09.462Z,100452.50
2023-04-30T18:08:38.265Z,100456.97
2023-04-30T18:11:08.577Z,100452.59
2023-04-30T18:13:38.112Z,100448.16
2023-04-30T18:16:08.330Z,100446.44
2023-04-30T18:18:37.241Z,100452.59
2023-04-30T18:21:08.690Z,100447.34
2023-04-30T18:23:37.910Z,100450.00
2023-04-30T18:26:07.353Z,100448.19
2023-04-30T18:28:36.362Z,100445.56
2023-04-30T18:31:05.280Z,100447.31
2023-04-30T18:33:34.408Z,100449.97
2023-04-30T18:36:06.070Z,100449.06
2023-04-30T18:38:37.957Z,100446.41
2023-04-30T18:41:08.209Z,100449.06
2023-04-30T18:43:37.817Z,100452.56
2023-04-30T18:46:06.969Z,100449.03
2023-04-30T18:48:36.514Z,100446.34
2023-04-30T18:51:05.540Z,100440.13
2023-04-30T18:53:34.639Z,100443.63
2023-04-30T18:56:05.075Z,100449.75
2023-04-30T18:58:33.688Z,100448.88
2023-04-30T19:01:02.515Z,100444.41
2023-04-30T19:03:31.875Z,100453.19
2023-04-30T19:06:01.212Z,100443.44
2023-04-30T19:08:30.904Z,100441.63
2023-04-30T19:11:00.390Z,100445.09
2023-04-30T19:13:31.717Z,100446.81
2023-04-30T19:16:02.936Z,100444.09
2023-04-30T19:18:32.028Z,100444.06
2023-04-30T19:21:02.204Z,100444.84
2023-04-30T19:23:31.754Z,100456.25
2023-04-30T19:26:03.120Z,100450.03
2023-04-30T19:28:33.294Z,100455.28
2023-04-30T19:31:03.251Z,100452.56
2023-04-30T19:33:36.747Z,100448.09
2023-04-30T19:36:06.390Z,100453.34
2023-04-30T19:38:35.465Z,100453.28
2023-04-30T19:41:04.852Z,100468.19
2023-04-30T19:43:35.736Z,100461.13
2023-04-30T19:46:04.963Z,100459.28
2023-04-30T19:48:34.233Z,100468.03
2023-04-30T19:51:04.931Z,100461.78
2023-04-30T19:53:33.868Z,100460.00
2023-04-30T19:56:02.971Z,100459.94
2023-04-30T19:58:31.859Z,100465.13
2023-04-30T20:01:02.123Z,100465.09
2023-04-30T20:03:31.142Z,100452.66
2023-04-30T20:06:00.079Z,100454.31
2023-04-30T20:08:28.953Z,100457.78
2023-04-30T20:10:58.503Z,100458.63
2023-04-30T20:13:28.209Z,100459.41
2023-04-30T20:15:57.238Z,100457.59
2023-04-30T20:18:27.674Z,100454.00
2023-04-30T20:20:58.291Z,100455.69
2023-04-30T20:23:27.061Z,100462.66
2023-04-30T20:25:55.676Z,100459.97
2023-04-30T20:28:24.526Z,100456.38
2023-04-30T20:30:53.141Z,100457.19
2023-04-30T20:33:21.941Z,100454.47
2023-04-30T20:35:52.445Z,100460.56
2023-04-30T20:38:21.924Z,100451.69
2023-04-30T20:40:50.775Z,100456.06
2023-04-30T20:43:20.147Z,100444.56
2023-04-30T20:45:49.045Z,100454.13
2023-04-30T20:48:18.419Z,100453.16
2023-04-30T20:50:47.758Z,100451.31
2023-04-30T20:53:18.078Z,100450.38
2023-04-30T20:55:47.076Z,100448.56
2023-04-30T20:58:16.182Z,100445.84
2023-04-30T21:00:45.106Z,100449.31
2023-04-30T21:03:14.179Z,100441.34
2023-04-30T21:05:43.241Z,100451.81
2023-04-30T21:08:12.490Z,100447.34
2023-04-30T21:10:45.470Z,100440.28
2023-04-30T21:13:15.071Z,100437.59
2023-04-30T21:15:44.021Z,100434.09
2023-04-30T21:18:12.979Z,100433.16
2023-04-30T21:20:41.922Z,100438.38
2023-04-30T21:23:11.512Z,100434.00
2023-04-30T21:25:40.375Z,100433.13
2023-04-30T21:28:10.957Z,100431.31
2023-04-30T21:30:40.102Z,100426.00
2023-04-30T21:33:08.890Z,100426.00
2023-04-30T21:35:37.977Z,100427.78
2023-04-30T21:38:08.273Z,100430.38
2023-04-30T21:40:37.549Z,100424.22
2023-04-30T21:43:06.396Z,100424.19
2023-04-30T21:45:36.606Z,100420.63
2023-04-30T21:48:06.377Z,100416.19
2023-04-30T21:50:35.688Z,100420.53
2023-04-30T21:53:05.028Z,100405.56
2023-04-30T21:55:33.652Z,100406.41
2023-04-30T21:58:02.222Z,100397.59
2023-04-30T22:00:30.914Z,100401.94
2023-04-30T22:03:00.913Z,100400.97
2023-04-30T22:05:31.867Z,100398.28
2023-04-30T22:08:00.431Z,100393.81
2023-04-30T22:10:28.980Z,100399.91
2023-04-30T22:12:57.486Z,100391.94
2023-04-30T22:15:40.896Z,100385.75
2023-04-30T22:18:17.337Z,100388.28
2023-04-30T22:20:46.180Z,100381.22
2023-04-30T22:23:15.708Z,100381.13
2023-04-30T22:25:44.380Z,100381.03
2023-04-30T22:28:12.990Z,100375.69
2023-04-30T22:30:41.486Z,100375.63
2023-04-30T22:33:10.196Z,100382.59
2023-04-30T22:35:40.324Z,100380.75
2023-04-30T22:38:09.073Z,100369.28
2023-04-30T22:40:40.455Z,100370.97
2023-04-30T22:43:10.703Z,100368.28
2023-04-30T22:45:40.584Z,100369.94
2023-04-30T22:48:10.609Z,100369.03
2023-04-30T22:50:40.964Z,100365.41
2023-04-30T22:53:10.283Z,100369.75
2023-04-30T22:55:38.852Z,100374.91
2023-04-30T22:58:07.389Z,100372.19
2023-04-30T23:00:36.021Z,100367.75
2023-04-30T23:03:05.123Z,100366.78
2023-04-30T23:05:33.771Z,100368.47
2023-04-30T23:08:04.415Z,100362.25
2023-04-30T23:10:32.896Z,100368.31
2023-04-30T23:13:01.383Z,100361.19
2023-04-30T23:15:30.041Z,100359.41
2023-04-30T23:18:00.390Z,100359.31
2023-04-30T23:20:28.986Z,100365.38
2023-04-30T23:22:57.644Z,100361.84
2023-04-30T23:25:27.531Z,100357.41
2023-04-30T23:27:56.648Z,100354.75
2023-04-30T23:30:25.901Z,100355.56
2023-04-30T23:32:54.725Z,100351.16
2023-04-30T23:35:23.318Z,100348.47
2023-04-30T23:37:51.810Z,100346.66
2023-04-30T23:40:20.439Z,100343.09
2023-04-30T23:42:50.276Z,100343.91
2023-04-30T23:45:20.830Z,100343.81
2023-04-30T23:47:49.459Z,100332.38
2023-04-30T23:50:18.180Z,100334.97
2023-04-30T23:52:46.862Z,100333.13
2023-04-30T23:55:16.135Z,100328.72
2023-04-30T23:57:44.591Z,100331.28
